Time;durP1;ratioP1;P1;durP2;ratioP2;P2;SDS_P1;SDS_P2;PMS_P1;PMS_P2;Temp;Humidity;BMP_temperature;BMP_pressure;BME280_temperature;BME280_humidity;BME280_pressure;Samples;Min_cycle;Max_cycle;Signal;HPM_P1;HPM_P2
2023/07/03 00:03:45;;;;;;;;;;;;;;;;;;12982787;19;20832;-66
2023/07/03 00:08:03;;;;;;;3.17;1.50;;;;;;;;;;12979626;19;19919;-66
2023/07/03 00:12:21;;;;;;;2.95;2.03;;;;;;;;;;12981191;19;20040;-66
2023/07/03 00:16:39;;;;;;;2.65;1.65;;;;;;;;;;12981569;19;20002;-66
2023/07/03 00:20:58;;;;;;;2.85;1.77;;;;;;;;;;12980436;19;20014;-66
2023/07/03 00:25:16;;;;;;;4.00;2.17;;;;;;;;;;12980445;19;20901;-66
2023/07/03 00:29:34;;;;;;;7.38;1.83;;;;;;;;;;12981050;19;20488;-66
2023/07/03 00:33:52;;;;;;;4.10;1.63;;;;;;;;;;12980053;19;20007;-67
2023/07/03 00:38:10;;;;;;;;;;;;;;;;;;12980005;19;20463;-66
2023/07/03 00:42:29;;;;;;;2.17;1.77;;;;;;;;;;12980130;19;20310;-66
2023/07/03 00:46:49;;;;;;;1.77;1.40;;;;;;;;;;12980281;19;20014;-66
2023/07/03 00:51:09;;;;;;;2.17;1.50;;;;;;;;;;12977173;19;20035;-66
2023/07/03 00:55:30;;;;;;;1.95;1.30;;;;;;;;;;12979333;19;20482;-66
2023/07/03 00:59:48;;;;;;;4.80;1.65;;;;;;;;;;12978918;19;20018;-66
2023/07/03 01:04:14;;;;;;;4.47;1.58;;;;;;;;;;12978657;19;20021;-67
2023/07/03 01:08:33;;;;;;;2.28;1.85;;;;;;;;;;12978142;19;20771;-66
2023/07/03 01:12:56;;;;;;;4.13;1.65;;;;;;;;;;12978405;19;20098;-66
2023/07/03 01:17:15;;;;;;;4.53;1.90;;;;;;;;;;12977683;19;20038;-65
2023/07/03 01:22:36;;;;;;;5.97;1.77;;;;;;;;;;12975527;19;20125;-66
2023/07/03 01:26:54;;;;;;;5.35;2.30;;;;;;;;;;12976674;19;20030;-66
2023/07/03 01:31:15;;;;;;;2.95;1.70;;;;;;;;;;12975091;19;20037;-66
2023/07/03 01:35:33;;;;;;;4.10;1.80;;;;;;;;;;12975993;19;20003;-67
2023/07/03 01:39:51;;;;;;;;;;;;;;;;;;12976150;19;20100;-66
2023/07/03 01:44:09;;;;;;;;;;;;;;;;;;12975110;19;20038;-66
2023/07/03 01:48:32;;;;;;;4.10;1.98;;;;;;;;;;12976647;19;19943;-66
2023/07/03 01:53:08;;;;;;;8.27;2.30;;;;;;;;;;12977760;19;20022;-65
2023/07/03 01:57:46;;;;;;;3.40;1.83;;;;;;;;;;12974365;19;20015;-65
2023/07/03 02:02:15;;;;;;;4.15;2.35;;;;;;;;;;12974094;19;20469;-65
2023/07/03 02:06:40;;;;;;;3.13;2.10;;;;;;;;;;12975895;19;20011;-65
2023/07/03 02:10:57;;;;;;;2.90;1.88;;;;;;;;;;12973842;19;20014;-65
2023/07/03 02:15:15;;;;;;;;;;;;;;;;;;12974011;19;20110;-65
2023/07/03 02:19:33;;;;;;;3.80;1.85;;;;;;;;;;12976105;19;19931;-65
2023/07/03 02:23:51;;;;;;;;;;;;;;;;;;12974457;19;20018;-65
2023/07/03 02:28:09;;;;;;;;;;;;;;;;;;12974478;19;19927;-65
2023/07/03 02:32:38;;;;;;;3.08;1.83;;;;;;;;;;12974391;19;19922;-66
2023/07/03 02:36:58;;;;;;;4.18;1.75;;;;;;;;;;12985653;19;20031;-66
2023/07/03 02:41:18;;;;;;;4.30;1.88;;;;;;;;;;12985960;19;20805;-65
2023/07/03 02:45:38;;;;;;;6.45;2.33;;;;;;;;;;12986515;19;20711;-65
2023/07/03 02:49:56;;;;;;;4.82;2.10;;;;;;;;;;12986395;19;20014;-65
2023/07/03 02:54:14;;;;;;;6.78;2.25;;;;;;;;;;12985331;19;20956;-65
2023/07/03 02:58:32;;;;;;;4.25;2.03;;;;;;;;;;12985680;19;20015;-65
2023/07/03 03:02:50;;;;;;;3.67;1.98;;;;;;;;;;12984127;19;20031;-65
2023/07/03 03:07:08;;;;;;;3.88;2.08;;;;;;;;;;12983730;19;20010;-65
2023/07/03 03:11:26;;;;;;;6.43;2.63;;;;;;;;;;12984889;19;20477;-65
2023/07/03 03:15:44;;;;;;;3.05;2.08;;;;;;;;;;12985194;19;20079;-65
2023/07/03 03:20:02;;;;;;;;;;;;;;;;;;12985709;19;20011;-65
2023/07/03 03:24:20;;;;;;;4.82;2.42;;;;;;;;;;12983188;19;19922;-65
2023/07/03 03:28:38;;;;;;;;;;;;;;;;;;12984453;19;20022;-65
2023/07/03 03:32:55;;;;;;;4.07;1.58;;;;;;;;;;12983442;19;19926;-64
2023/07/03 03:37:13;;;;;;;4.38;2.03;;;;;;;;;;12983379;19;20043;-65
2023/07/03 03:41:31;;;;;;;3.22;2.00;;;;;;;;;;12983125;19;20010;-65
2023/07/03 03:45:59;;;;;;;8.18;2.55;;;;;;;;;;12981494;19;20031;-65
2023/07/03 03:50:17;;;;;;;4.32;2.97;;;;;;;;;;12984411;19;20018;-66
2023/07/03 03:54:35;;;;;;;13.85;3.25;;;;;;;;;;12983288;19;20022;-66
2023/07/03 03:58:53;;;;;;;7.40;3.45;;;;;;;;;;12982660;19;20033;-65
2023/07/03 04:03:12;;;;;;;7.03;3.15;;;;;;;;;;12981886;19;20053;-65
2023/07/03 04:07:29;;;;;;;6.22;2.72;;;;;;;;;;12981361;19;20015;-66
2023/07/03 04:11:47;;;;;;;5.18;3.20;;;;;;;;;;12981919;19;20015;-66
2023/07/03 04:16:05;;;;;;;4.57;2.55;;;;;;;;;;12981623;19;20514;-66
2023/07/03 04:20:25;;;;;;;4.25;2.58;;;;;;;;;;12981667;19;20045;-66
2023/07/03 04:24:43;;;;;;;4.88;3.10;;;;;;;;;;12981961;19;20010;-65
2023/07/03 04:29:00;;;;;;;5.93;3.35;;;;;;;;;;12980567;19;20031;-65
2023/07/03 04:33:18;;;;;;;;;;;;;;;;;;12981531;19;20021;-66
2023/07/03 04:37:37;;;;;;;7.65;3.75;;;;;;;;;;12980819;19;19926;-65
2023/07/03 04:41:56;;;;;;;5.60;3.22;;;;;;;;;;12980062;19;20018;-65
2023/07/03 04:46:14;;;;;;;7.43;3.30;;;;;;;;;;12978244;19;20387;-65
2023/07/03 04:50:32;;;;;;;6.38;3.03;;;;;;;;;;12977910;19;20434;-65
2023/07/03 04:54:49;;;;;;;4.95;3.40;;;;;;;;;;12977594;19;20018;-65
2023/07/03 04:59:07;;;;;;;5.55;3.10;;;;;;;;;;12975441;19;20045;-65
2023/07/03 05:03:25;;;;;;;9.70;3.78;;;;;;;;;;12979487;19;20014;-66
2023/07/03 05:07:44;;;;;;;5.63;3.75;;;;;;;;;;12979384;19;20051;-66
2023/07/03 05:12:03;;;;;;;11.40;3.28;;;;;;;;;;12976169;19;20018;-66
2023/07/03 05:16:21;;;;;;;5.15;3.70;;;;;;;;;;12978679;19;20018;-65
2023/07/03 05:20:41;;;;;;;5.65;3.40;;;;;;;;;;12978510;19;20011;-65
2023/07/03 05:25:00;;;;;;;8.20;3.38;;;;;;;;;;12977756;19;20364;-66
2023/07/03 05:29:17;;;;;;;4.90;3.42;;;;;;;;;;12976875;19;20023;-66
2023/07/03 05:33:35;;;;;;;8.13;4.38;;;;;;;;;;12976842;19;20010;-66
2023/07/03 05:37:53;;;;;;;7.20;4.07;;;;;;;;;;12977517;19;20335;-66
2023/07/03 05:42:11;;;;;;;9.10;5.05;;;;;;;;;;12974789;19;20022;-66
2023/07/03 05:46:29;;;;;;;12.57;6.15;;;;;;;;;;12977188;19;20039;-66
2023/07/03 05:50:47;;;;;;;11.20;7.03;;;;;;;;;;12977383;19;20031;-66
2023/07/03 05:55:05;;;;;;;11.50;6.28;;;;;;;;;;12977355;19;20014;-66
2023/07/03 05:59:23;;;;;;;10.18;6.93;;;;;;;;;;12977843;19;20019;-66
2023/07/03 06:03:42;;;;;;;7.10;4.80;;;;;;;;;;12975020;19;20042;-66
2023/07/03 06:08:00;;;;;;;16.05;4.07;;;;;;;;;;12976225;19;20775;-66
2023/07/03 06:12:18;;;;;;;9.73;3.80;;;;;;;;;;12988579;19;20014;-66
2023/07/03 06:16:37;;;;;;;6.85;3.60;;;;;;;;;;12988874;19;20006;-66
2023/07/03 06:20:55;;;;;;;7.43;3.17;;;;;;;;;;12988066;19;20027;-66
2023/07/03 06:25:13;;;;;;;6.13;3.55;;;;;;;;;;12986883;19;20410;-66
2023/07/03 06:29:30;;;;;;;;;;;;;;;;;;12988001;19;20010;-66
2023/07/03 06:33:48;;;;;;;6.30;3.25;;;;;;;;;;12987501;19;19919;-66
2023/07/03 06:38:07;;;;;;;;;;;;;;;;;;12987376;19;20383;-66
2023/07/03 06:42:25;;;;;;;6.28;3.10;;;;;;;;;;12987351;19;19918;-66
2023/07/03 06:46:43;;;;;;;4.07;2.88;;;;;;;;;;12987238;19;20834;-65
2023/07/03 06:51:04;;;;;;;7.55;2.80;;;;;;;;;;12985988;19;20014;-66
2023/07/03 06:55:22;;;;;;;8.27;3.75;;;;;;;;;;12986442;19;20030;-66
2023/07/03 06:59:40;;;;;;;;;;;;;;;;;;12987713;19;20017;-66
2023/07/03 07:03:57;;;;;;;7.47;3.05;;;;;;;;;;12990605;19;19933;-65
2023/07/03 07:08:17;;;;;;;3.53;2.10;;;;;;;;;;12988836;19;20010;-66
2023/07/03 07:12:35;;;;;;;4.72;2.38;;;;;;;;;;12991323;19;20015;-66
2023/07/03 07:16:53;;;;;;;;;;;;;;;;;;12993120;19;20014;-66
2023/07/03 07:21:10;;;;;;;5.35;2.83;;;;;;;;;;12988338;19;19918;-66
2023/07/03 07:25:28;;;;;;;5.93;2.90;;;;;;;;;;12989872;19;20368;-68
2023/07/03 07:29:46;;;;;;;7.05;2.60;;;;;;;;;;12989417;19;20022;-65
2023/07/03 07:34:05;;;;;;;7.15;3.00;;;;;;;;;;12988874;19;20350;-66
2023/07/03 07:38:24;;;;;;;3.50;2.35;;;;;;;;;;12990016;19;20481;-66
2023/07/03 07:42:41;;;;;;;7.13;2.50;;;;;;;;;;12987494;19;20025;-66
2023/07/03 07:46:59;;;;;;;4.20;2.22;;;;;;;;;;12987907;19;20473;-67
2023/07/03 07:51:17;;;;;;;8.38;2.45;;;;;;;;;;12988288;19;20022;-66
2023/07/03 07:55:38;;;;;;;5.13;2.80;;;;;;;;;;12988130;19;20014;-66
2023/07/03 07:59:56;;;;;;;4.47;2.88;;;;;;;;;;12987971;19;20010;-67
2023/07/03 08:04:14;;;;;;;6.10;2.47;;;;;;;;;;12988028;19;20025;-66
2023/07/03 08:08:33;;;;;;;5.95;2.60;;;;;;;;;;12987922;19;20010;-66
2023/07/03 08:12:52;;;;;;;8.32;3.42;;;;;;;;;;12988372;19;20019;-66
2023/07/03 08:17:11;;;;;;;4.95;2.17;;;;;;;;;;12987238;19;20015;-66
2023/07/03 08:21:29;;;;;;;7.57;2.90;;;;;;;;;;12988361;19;20007;-66
2023/07/03 08:25:52;;;;;;;3.10;2.08;;;;;;;;;;12987248;19;20260;-66
2023/07/03 08:30:11;;;;;;;6.45;2.50;;;;;;;;;;12985297;19;20022;-66
2023/07/03 08:34:29;;;;;;;6.35;2.47;;;;;;;;;;12986681;19;20015;-66
2023/07/03 08:38:47;;;;;;;5.00;2.55;;;;;;;;;;12986863;19;20010;-66
2023/07/03 08:43:18;;;;;;;5.40;2.42;;;;;;;;;;12985465;19;20480;-66
2023/07/03 08:47:36;;;;;;;7.37;2.40;;;;;;;;;;12984394;19;20029;-66
2023/07/03 08:51:58;;;;;;;4.65;2.28;;;;;;;;;;12984232;19;20023;-67
2023/07/03 08:56:21;;;;;;;8.52;3.97;;;;;;;;;;12984796;19;20018;-67
2023/07/03 09:01:06;;;;;;;10.35;4.47;;;;;;;;;;12985652;19;20034;-66
2023/07/03 09:05:51;;;;;;;25.95;9.23;;;;;;;;;;12985921;19;20018;-66
2023/07/03 09:10:22;;;;;;;9.32;4.30;;;;;;;;;;12983514;19;20021;-66
2023/07/03 09:14:48;;;;;;;7.18;4.00;;;;;;;;;;12984007;19;20022;-66
2023/07/03 09:19:16;;;;;;;11.20;4.72;;;;;;;;;;12981826;19;20411;-66
2023/07/03 09:23:46;;;;;;;10.63;4.78;;;;;;;;;;12983601;19;20006;-66
2023/07/03 09:28:05;;;;;;;8.68;4.35;;;;;;;;;;12980753;19;20493;-66
2023/07/03 09:32:29;;;;;;;12.95;5.60;;;;;;;;;;12979788;19;20018;-66
2023/07/03 09:36:58;;;;;;;15.38;5.95;;;;;;;;;;12981806;19;20018;-66
2023/07/03 09:41:26;;;;;;;7.90;4.18;;;;;;;;;;12982219;19;20019;-66
2023/07/03 09:45:45;;;;;;;10.60;5.00;;;;;;;;;;12981288;19;20021;-66
2023/07/03 09:50:06;;;;;;;10.90;4.85;;;;;;;;;;12980165;19;20026;-68
2023/07/03 09:54:31;;;;;;;9.13;4.50;;;;;;;;;;12980284;19;20003;-66
2023/07/03 09:58:54;;;;;;;9.45;4.60;;;;;;;;;;12978990;19;20023;-66
2023/07/03 10:03:12;;;;;;;8.18;3.75;;;;;;;;;;12980557;19;20014;-65
2023/07/03 10:07:41;;;;;;;10.55;4.80;;;;;;;;;;12981642;19;20102;-65
2023/07/03 10:12:11;;;;;;;12.95;5.03;;;;;;;;;;12979417;19;20018;-66
2023/07/03 10:16:31;;;;;;;8.80;4.35;;;;;;;;;;12981240;19;20014;-65
2023/07/03 10:20:50;;;;;;;15.05;5.13;;;;;;;;;;12978083;19;20011;-65
2023/07/03 10:25:18;;;;;;;9.48;4.32;;;;;;;;;;12978681;19;20347;-65
2023/07/03 10:29:42;;;;;;;10.30;4.63;;;;;;;;;;12980233;19;20015;-65
2023/07/03 10:34:10;;;;;;;11.73;4.60;;;;;;;;;;12978565;19;20388;-65
2023/07/03 10:38:47;;;;;;;10.02;4.57;;;;;;;;;;12978906;19;20826;-65
2023/07/03 10:43:10;;;;;;;8.95;4.90;;;;;;;;;;12976051;19;20498;-66
2023/07/03 10:47:37;;;;;;;15.35;5.10;;;;;;;;;;12975709;19;20017;-65
2023/07/03 10:52:27;;;;;;;12.27;4.85;;;;;;;;;;12977953;19;20014;-66
2023/07/03 10:56:51;;;;;;;11.18;4.97;;;;;;;;;;12986437;19;20037;-66
2023/07/03 11:01:43;;;;;;;13.57;5.63;;;;;;;;;;12988598;19;20027;-65
2023/07/03 11:06:12;;;;;;;12.00;5.25;;;;;;;;;;12987930;19;20018;-67
2023/07/03 11:10:47;;;;;;;12.15;5.30;;;;;;;;;;12990582;19;20006;-66
2023/07/03 11:15:46;;;;;;;17.42;5.82;;;;;;;;;;12989049;19;20485;-66
2023/07/03 11:20:35;;;;;;;12.23;5.70;;;;;;;;;;12988844;19;20553;-66
2023/07/03 11:25:11;;;;;;;13.05;6.50;;;;;;;;;;12991423;19;20011;-65
2023/07/03 11:29:30;;;;;;;11.00;5.15;;;;;;;;;;12987976;19;20014;-66
2023/07/03 11:33:48;;;;;;;12.57;5.55;;;;;;;;;;12987207;19;20130;-65
2023/07/03 11:38:09;;;;;;;13.77;6.10;;;;;;;;;;12987099;19;20035;-66
2023/07/03 11:42:30;;;;;;;11.93;5.30;;;;;;;;;;12988675;19;20370;-65
2023/07/03 11:46:52;;;;;;;11.82;5.20;;;;;;;;;;12987550;19;20494;-65
2023/07/03 11:51:16;;;;;;;11.40;5.45;;;;;;;;;;12986884;19;20011;-65
2023/07/03 11:55:37;;;;;;;13.20;5.63;;;;;;;;;;12985923;19;20026;-65
2023/07/03 12:00:17;;;;;;;10.45;4.90;;;;;;;;;;12987889;19;20014;-65
2023/07/03 12:04:45;;;;;;;9.48;4.40;;;;;;;;;;12985061;19;20041;-65
2023/07/03 12:09:21;;;;;;;9.60;4.50;;;;;;;;;;12984227;19;20389;-65
2023/07/03 12:13:41;;;;;;;11.13;4.70;;;;;;;;;;12987495;19;20010;-65
2023/07/03 12:18:05;;;;;;;9.60;4.63;;;;;;;;;;12987910;19;20374;-65
2023/07/03 12:22:28;;;;;;;8.60;4.25;;;;;;;;;;12986412;19;20010;-65
2023/07/03 12:26:52;;;;;;;12.00;4.97;;;;;;;;;;12986323;19;20046;-65
2023/07/03 12:31:11;;;;;;;10.80;4.40;;;;;;;;;;12986169;19;20022;-65
2023/07/03 12:35:42;;;;;;;8.93;4.28;;;;;;;;;;12983988;19;20015;-67
2023/07/03 12:40:00;;;;;;;9.68;4.78;;;;;;;;;;12969434;19;20014;-66
2023/07/03 12:44:21;;;;;;;;;;;;;;;;;;12908891;19;20916;-67
2023/07/03 12:48:39;;;;;;;11.63;4.95;;;;;;;;;;12973450;19;19925;-66
2023/07/03 12:52:59;;;;;;;6.97;3.72;;;;;;;;;;12978539;19;20027;-67
2023/07/03 12:57:19;;;;;;;9.35;3.95;;;;;;;;;;12976073;19;20027;-66
2023/07/03 13:01:38;;;;;;;6.63;3.95;;;;;;;;;;12978486;19;20822;-67
2023/07/03 13:05:56;;;;;;;9.73;4.53;;;;;;;;;;12977757;19;20015;-67
2023/07/03 13:10:19;;;;;;;7.03;4.25;;;;;;;;;;12982801;19;20595;-67
2023/07/03 13:14:37;;;;;;;28.88;6.00;;;;;;;;;;12981095;19;20018;-66
2023/07/03 13:19:01;;;;;;;9.38;5.00;;;;;;;;;;12977681;19;20053;-67
2023/07/03 13:23:33;;;;;;;8.93;4.40;;;;;;;;;;12983506;19;20018;-66
2023/07/03 13:27:52;;;;;;;7.85;4.28;;;;;;;;;;12982227;19;20014;-66
2023/07/03 13:32:16;;;;;;;10.38;4.38;;;;;;;;;;12979454;19;20011;-66
2023/07/03 13:37:04;;;;;;;7.63;4.20;;;;;;;;;;12982511;19;20006;-66
2023/07/03 13:41:22;;;;;;;13.38;4.22;;;;;;;;;;12979081;19;20018;-65
2023/07/03 13:45:39;;;;;;;9.38;4.15;;;;;;;;;;12980077;19;20011;-64
2023/07/03 13:49:57;;;;;;;14.07;4.07;;;;;;;;;;12981054;19;20007;-64
2023/07/03 13:54:15;;;;;;;7.53;4.32;;;;;;;;;;12980865;19;20046;-65
2023/07/03 13:58:33;;;;;;;8.55;3.97;;;;;;;;;;12980901;19;20374;-65
2023/07/03 14:02:50;;;;;;;13.63;4.47;;;;;;;;;;12980422;19;20015;-64
2023/07/03 14:07:08;;;;;;;8.73;4.45;;;;;;;;;;12980347;19;20557;-64
2023/07/03 14:11:26;;;;;;;10.90;4.50;;;;;;;;;;12980374;19;20037;-65
2023/07/03 14:15:44;;;;;;;11.70;4.20;;;;;;;;;;12980765;19;20015;-65
2023/07/03 14:20:02;;;;;;;7.22;3.10;;;;;;;;;;12979626;19;20018;-66
2023/07/03 14:24:20;;;;;;;12.77;4.40;;;;;;;;;;12980667;19;20010;-65
2023/07/03 14:28:40;;;;;;;5.47;3.17;;;;;;;;;;12980854;19;20315;-65
2023/07/03 14:32:57;;;;;;;11.30;4.53;;;;;;;;;;12991147;19;20664;-65
2023/07/03 14:37:15;;;;;;;8.18;4.00;;;;;;;;;;12992029;19;20015;-64
2023/07/03 14:41:33;;;;;;;9.48;3.65;;;;;;;;;;12991907;19;20010;-64
2023/07/03 14:45:51;;;;;;;9.52;4.18;;;;;;;;;;12990266;19;20018;-65
2023/07/03 14:50:11;;;;;;;8.80;3.85;;;;;;;;;;12989615;19;20015;-65
2023/07/03 14:54:29;;;;;;;10.93;4.13;;;;;;;;;;12991189;19;20015;-65
2023/07/03 14:58:46;;;;;;;8.00;3.55;;;;;;;;;;12988704;19;20339;-65
2023/07/03 15:03:04;;;;;;;9.65;4.05;;;;;;;;;;12990567;19;20021;-65
2023/07/03 15:07:22;;;;;;;8.18;3.78;;;;;;;;;;12991609;19;20477;-65
2023/07/03 15:11:40;;;;;;;16.42;4.30;;;;;;;;;;12989833;19;20006;-65
2023/07/03 15:15:58;;;;;;;6.60;3.83;;;;;;;;;;12989654;19;20551;-64
2023/07/03 15:20:15;;;;;;;10.65;3.65;;;;;;;;;;12988905;19;20015;-64
2023/07/03 15:24:34;;;;;;;9.43;3.67;;;;;;;;;;12988449;19;20014;-64
2023/07/03 15:28:52;;;;;;;12.23;3.90;;;;;;;;;;12988424;19;20006;-64
2023/07/03 15:33:10;;;;;;;9.82;3.47;;;;;;;;;;12987976;19;20470;-64
2023/07/03 15:37:28;;;;;;;9.52;3.72;;;;;;;;;;12990075;19;20006;-64
2023/07/03 15:41:46;;;;;;;;;;;;;;;;;;12987947;19;20007;-64
2023/07/03 15:46:15;;;;;;;8.00;4.07;;;;;;;;;;12988619;19;20247;-65
2023/07/03 15:50:33;;;;;;;14.27;4.03;;;;;;;;;;12988328;19;20527;-65
2023/07/03 15:54:51;;;;;;;8.02;3.63;;;;;;;;;;12985308;19;20010;-65
2023/07/03 15:59:10;;;;;;;8.63;4.20;;;;;;;;;;12986727;19;20448;-65
2023/07/03 16:03:29;;;;;;;7.10;3.78;;;;;;;;;;12987684;19;20015;-64
2023/07/03 16:07:46;;;;;;;9.10;4.32;;;;;;;;;;12987136;19;20037;-64
2023/07/03 16:12:04;;;;;;;9.68;3.60;;;;;;;;;;12985595;19;20130;-64
2023/07/03 16:16:24;;;;;;;9.93;4.05;;;;;;;;;;12986138;19;20026;-64
2023/07/03 16:20:42;;;;;;;6.97;3.53;;;;;;;;;;12986275;19;20018;-64
2023/07/03 16:25:01;;;;;;;13.02;3.83;;;;;;;;;;12986381;19;20022;-64
2023/07/03 16:29:18;;;;;;;9.82;4.53;;;;;;;;;;12985763;19;20060;-64
2023/07/03 16:33:42;;;;;;;10.27;3.67;;;;;;;;;;12984943;19;20014;-64
2023/07/03 16:38:02;;;;;;;7.65;3.10;;;;;;;;;;12986058;19;20133;-65
2023/07/03 16:42:19;;;;;;;6.70;3.80;;;;;;;;;;12984541;19;20010;-64
2023/07/03 16:46:37;;;;;;;;;;;;;;;;;;12985418;19;20460;-64
2023/07/03 16:50:58;;;;;;;12.02;3.65;;;;;;;;;;12984157;19;20246;-64
2023/07/03 16:55:16;;;;;;;10.20;3.15;;;;;;;;;;12983801;19;20026;-64
2023/07/03 16:59:34;;;;;;;;;;;;;;;;;;12984686;19;20018;-64
2023/07/03 17:03:54;;;;;;;10.80;4.10;;;;;;;;;;12983929;19;19926;-63
2023/07/03 17:08:12;;;;;;;9.80;3.88;;;;;;;;;;12983284;19;20357;-63
2023/07/03 17:12:30;;;;;;;9.02;3.45;;;;;;;;;;12984391;19;20003;-64
2023/07/03 17:16:48;;;;;;;10.88;3.65;;;;;;;;;;12984237;19;20007;-64
2023/07/03 17:21:06;;;;;;;6.18;3.22;;;;;;;;;;12983429;19;20421;-64
2023/07/03 17:25:24;;;;;;;9.32;4.22;;;;;;;;;;12983584;19;20018;-63
2023/07/03 17:29:41;;;;;;;8.25;3.28;;;;;;;;;;12979580;19;20021;-64
2023/07/03 17:33:58;;;;;;;;;;;;;;;;;;12979754;19;20006;-63
2023/07/03 17:38:17;;;;;;;9.80;3.42;;;;;;;;;;12982556;19;20353;-63
2023/07/03 17:42:35;;;;;;;9.82;3.20;;;;;;;;;;12981884;19;20022;-63
2023/07/03 17:46:52;;;;;;;8.23;3.10;;;;;;;;;;12981357;19;20452;-63
2023/07/03 17:51:10;;;;;;;13.30;3.72;;;;;;;;;;12979322;19;20014;-64
2023/07/03 17:55:31;;;;;;;8.77;3.47;;;;;;;;;;12980626;19;20041;-63
2023/07/03 17:59:49;;;;;;;5.38;2.53;;;;;;;;;;12981025;19;20021;-63
2023/07/03 18:04:07;;;;;;;12.65;4.25;;;;;;;;;;12981420;19;20458;-63
2023/07/03 18:08:25;;;;;;;10.85;4.68;;;;;;;;;;12993669;19;20030;-63
2023/07/03 18:12:43;;;;;;;8.70;3.45;;;;;;;;;;12993884;19;20014;-64
2023/07/03 18:17:01;;;;;;;9.05;3.38;;;;;;;;;;12994000;19;20018;-64
2023/07/03 18:21:20;;;;;;;6.35;3.22;;;;;;;;;;12993115;19;20366;-64
2023/07/03 18:25:39;;;;;;;13.75;4.55;;;;;;;;;;12992995;19;20493;-64
2023/07/03 18:29:57;;;;;;;8.82;3.90;;;;;;;;;;12991475;19;20022;-64
2023/07/03 18:34:15;;;;;;;;;;;;;;;;;;12991505;19;20820;-63
2023/07/03 18:38:34;;;;;;;10.25;4.65;;;;;;;;;;12992021;19;20250;-64
2023/07/03 18:42:52;;;;;;;11.10;3.70;;;;;;;;;;12992031;19;20029;-64
2023/07/03 18:47:12;;;;;;;13.75;3.80;;;;;;;;;;12990931;19;20014;-63
2023/07/03 18:51:30;;;;;;;11.40;4.55;;;;;;;;;;12990265;19;20018;-63
2023/07/03 18:55:51;;;;;;;8.02;4.47;;;;;;;;;;12990807;19;20482;-63
2023/07/03 19:00:10;;;;;;;10.35;3.85;;;;;;;;;;12989552;19;20014;-64
2023/07/03 19:04:28;;;;;;;7.97;3.95;;;;;;;;;;12991067;19;20021;-63
2023/07/03 19:08:46;;;;;;;;;;;;;;;;;;12991172;19;20018;-63
2023/07/03 19:13:03;;;;;;;;;;;;;;;;;;12988291;19;19918;-64
2023/07/03 19:17:21;;;;;;;9.20;3.97;;;;;;;;;;12985282;19;19945;-63
2023/07/03 19:21:39;;;;;;;9.52;4.10;;;;;;;;;;12989477;19;20014;-65
2023/07/03 19:25:58;;;;;;;8.95;4.38;;;;;;;;;;12989739;19;20383;-66
2023/07/03 19:30:16;;;;;;;12.15;5.03;;;;;;;;;;12987734;19;20018;-64
2023/07/03 19:34:35;;;;;;;;;;;;;;;;;;12988643;19;20026;-65
2023/07/03 19:38:53;;;;;;;12.02;4.90;;;;;;;;;;12988379;19;20630;-66
2023/07/03 19:43:11;;;;;;;16.27;5.50;;;;;;;;;;12987565;19;20444;-65
2023/07/03 19:47:29;;;;;;;;;;;;;;;;;;12988927;19;20018;-65
2023/07/03 19:51:47;;;;;;;14.70;6.22;;;;;;;;;;12987364;19;20347;-64
2023/07/03 19:56:14;;;;;;;12.60;5.88;;;;;;;;;;12986808;19;20022;-64
2023/07/03 20:00:32;;;;;;;10.70;5.57;;;;;;;;;;12988365;19;20026;-63
2023/07/03 20:04:50;;;;;;;8.63;4.88;;;;;;;;;;12986873;19;20027;-64
2023/07/03 20:09:08;;;;;;;10.00;5.25;;;;;;;;;;12986868;19;20354;-63
2023/07/03 20:13:28;;;;;;;9.88;4.85;;;;;;;;;;12987298;19;20015;-63
2023/07/03 20:17:47;;;;;;;12.05;5.63;;;;;;;;;;12986212;19;20038;-63
2023/07/03 20:22:05;;;;;;;8.88;4.50;;;;;;;;;;12985420;19;20014;-63
2023/07/03 20:26:27;;;;;;;9.77;4.75;;;;;;;;;;12986061;19;20022;-64
2023/07/03 20:30:49;;;;;;;11.52;4.90;;;;;;;;;;12983508;19;20018;-64
2023/07/03 20:35:08;;;;;;;9.50;4.57;;;;;;;;;;12984608;19;20011;-65
2023/07/03 20:39:25;;;;;;;10.95;5.00;;;;;;;;;;12985356;19;20026;-64
2023/07/03 20:43:43;;;;;;;8.65;4.50;;;;;;;;;;12984539;19;20010;-64
2023/07/03 20:48:01;;;;;;;;;;;;;;;;;;12984501;19;20010;-63
2023/07/03 20:52:22;;;;;;;13.05;5.88;;;;;;;;;;12984421;19;19982;-63
2023/07/03 20:56:39;;;;;;;13.40;6.18;;;;;;;;;;12984642;19;20017;-63
2023/07/03 21:01:09;;;;;;;13.27;5.57;;;;;;;;;;12984738;19;20014;-63
2023/07/03 21:05:27;;;;;;;11.30;5.40;;;;;;;;;;12984175;19;20033;-63
2023/07/03 21:09:45;;;;;;;10.02;5.53;;;;;;;;;;12983299;19;20109;-63
2023/07/03 21:14:04;;;;;;;;;;;;;;;;;;12982511;19;20015;-64
2023/07/03 21:18:22;;;;;;;13.38;5.28;;;;;;;;;;12982622;19;19922;-63
2023/07/03 21:22:39;;;;;;;12.80;5.18;;;;;;;;;;12982552;19;20006;-64
2023/07/03 21:26:57;;;;;;;;;;;;;;;;;;12983107;19;20326;-63
2023/07/03 21:31:22;;;;;;;9.93;5.40;;;;;;;;;;12981023;19;20282;-63
2023/07/03 21:35:40;;;;;;;10.18;5.00;;;;;;;;;;12982822;19;20461;-63
2023/07/03 21:39:58;;;;;;;8.38;4.88;;;;;;;;;;12979791;19;20426;-63
2023/07/03 21:44:17;;;;;;;;;;;;;;;;;;12982418;19;20485;-64
2023/07/03 21:48:38;;;;;;;13.95;4.72;;;;;;;;;;12981384;19;19919;-63
2023/07/03 21:52:56;;;;;;;11.25;5.68;;;;;;;;;;12981010;19;20011;-64
2023/07/03 21:57:14;;;;;;;;;;;;;;;;;;12980878;19;20018;-63
2023/07/03 22:01:38;;;;;;;9.30;5.25;;;;;;;;;;12979839;19;20243;-63
2023/07/03 22:05:56;;;;;;;11.52;5.43;;;;;;;;;;12980219;19;20033;-63
2023/07/03 22:10:13;;;;;;;9.68;5.00;;;;;;;;;;12977756;19;20548;-64
2023/07/03 22:14:31;;;;;;;14.65;5.57;;;;;;;;;;12979662;19;20023;-63
2023/07/03 22:18:49;;;;;;;10.60;5.05;;;;;;;;;;12979200;19;20006;-63
2023/07/03 22:23:08;;;;;;;9.50;4.55;;;;;;;;;;12971896;19;20018;-64
2023/07/03 22:27:26;;;;;;;8.45;4.70;;;;;;;;;;12984423;19;20017;-64
2023/07/03 22:31:44;;;;;;;10.73;4.95;;;;;;;;;;12984161;19;20019;-64
2023/07/03 22:36:01;;;;;;;17.63;5.75;;;;;;;;;;12985318;19;20022;-63
2023/07/03 22:40:19;;;;;;;;;;;;;;;;;;12985588;19;20354;-65
2023/07/03 22:44:37;;;;;;;11.02;5.40;;;;;;;;;;12984513;19;20499;-64
2023/07/03 22:48:55;;;;;;;;;;;;;;;;;;12984666;19;20033;-64
2023/07/03 22:53:13;;;;;;;10.25;5.35;;;;;;;;;;12993075;19;20354;-63
2023/07/03 22:57:31;;;;;;;9.88;5.03;;;;;;;;;;12996298;19;20003;-65
2023/07/03 23:01:52;;;;;;;8.48;4.80;;;;;;;;;;12996630;19;20010;-63
2023/07/03 23:06:10;;;;;;;10.55;5.75;;;;;;;;;;12995253;19;20026;-64
2023/07/03 23:10:28;;;;;;;10.98;5.20;;;;;;;;;;12994993;19;20006;-64
2023/07/03 23:14:48;;;;;;;9.35;4.70;;;;;;;;;;12996159;19;20469;-64
2023/07/03 23:19:08;;;;;;;9.77;5.03;;;;;;;;;;12995192;19;20018;-64
2023/07/03 23:23:29;;;;;;;9.40;4.75;;;;;;;;;;12996059;19;20018;-63
2023/07/03 23:27:49;;;;;;;10.48;5.43;;;;;;;;;;12995692;19;20614;-64
2023/07/03 23:32:07;;;;;;;9.77;5.00;;;;;;;;;;12992652;19;20469;-64
2023/07/03 23:36:27;;;;;;;9.85;5.07;;;;;;;;;;12994961;19;20018;-63
2023/07/03 23:40:49;;;;;;;9.88;4.95;;;;;;;;;;12994122;19;20025;-63
2023/07/03 23:45:08;;;;;;;9.07;5.00;;;;;;;;;;12993301;19;20010;-63
2023/07/03 23:49:26;;;;;;;10.32;5.00;;;;;;;;;;12992932;19;20162;-63
2023/07/03 23:53:47;;;;;;;10.77;5.35;;;;;;;;;;12993862;19;20026;-64
2023/07/03 23:58:05;;;;;;;7.93;4.95;;;;;;;;;;12993169;19;20018;-63
